Time;durP1;ratioP1;P1;durP2;ratioP2;P2;SDS_P1;SDS_P2;PMS_P1;PMS_P2;Temp;Humidity;BMP_temperature;BMP_pressure;BME280_temperature;BME280_humidity;BME280_pressure;Samples;Min_cycle;Max_cycle;Signal;HPM_P1;HPM_P2
2023/05/03 00:00:25;;;;;;;14.27;8.48;;;;;;;;;;5026307;28;20124;-61
2023/05/03 00:02:52;;;;;;;11.48;7.82;;;;;;;;;;5008709;28;20022;-61
2023/05/03 00:05:18;;;;;;;18.85;8.90;;;;;;;;;;5026426;28;20380;-61
2023/05/03 00:07:43;;;;;;;13.68;8.23;;;;;;;;;;5029094;28;20021;-62
2023/05/03 00:10:14;;;;;;;12.63;8.52;;;;;;;;;;5030255;28;20025;-62
2023/05/03 00:12:40;;;;;;;13.80;8.18;;;;;;;;;;5030304;28;20025;-59
2023/05/03 00:15:06;;;;;;;12.95;8.05;;;;;;;;;;5030429;28;20078;-61
2023/05/03 00:17:31;;;;;;;15.38;8.18;;;;;;;;;;5030135;28;20100;-61
2023/05/03 00:19:57;;;;;;;16.88;7.78;;;;;;;;;;5030465;28;20530;-63
2023/05/03 00:22:22;;;;;;;12.80;8.48;;;;;;;;;;5030349;28;20212;-61
2023/05/03 00:24:49;;;;;;;13.93;7.97;;;;;;;;;;5030118;28;20410;-62
2023/05/03 00:27:15;;;;;;;9.20;7.82;;;;;;;;;;5030160;28;20037;-62
2023/05/03 00:29:40;;;;;;;14.70;7.75;;;;;;;;;;5030010;28;20030;-62
2023/05/03 00:32:06;;;;;;;12.88;8.05;;;;;;;;;;5029958;28;20021;-61
2023/05/03 00:34:31;;;;;;;12.45;8.52;;;;;;;;;;5029834;28;20021;-61
2023/05/03 00:36:57;;;;;;;13.73;7.65;;;;;;;;;;5030139;28;20470;-62
2023/05/03 00:39:22;;;;;;;9.43;7.93;;;;;;;;;;4994229;28;20116;-61
2023/05/03 00:41:47;;;;;;;13.13;7.50;;;;;;;;;;5029904;28;20258;-62
2023/05/03 00:44:13;;;;;;;12.00;7.55;;;;;;;;;;5029692;28;20282;-60
2023/05/03 00:46:39;;;;;;;13.93;7.93;;;;;;;;;;5010440;28;20072;-61
2023/05/03 00:49:05;;;;;;;9.80;6.63;;;;;;;;;;5029610;28;20727;-62
2023/05/03 00:51:30;;;;;;;11.60;7.03;;;;;;;;;;5029916;28;20214;-61
2023/05/03 00:53:56;;;;;;;16.45;7.30;;;;;;;;;;5029751;28;20060;-61
2023/05/03 00:56:22;;;;;;;9.05;7.07;;;;;;;;;;5029708;28;20028;-62
2023/05/03 00:58:48;;;;;;;7.18;6.45;;;;;;;;;;5029578;28;20025;-61
2023/05/03 01:01:14;;;;;;;10.27;7.30;;;;;;;;;;5028680;28;20024;-61
2023/05/03 01:03:40;;;;;;;11.35;7.00;;;;;;;;;;5028809;28;20476;-61
2023/05/03 01:06:21;;;;;;;13.15;7.07;;;;;;;;;;5011209;28;20018;-61
2023/05/03 01:08:53;;;;;;;11.05;7.25;;;;;;;;;;5029320;28;20036;-62
2023/05/03 01:11:29;;;;;;;14.65;7.43;;;;;;;;;;5029251;28;20025;-61
2023/05/03 01:13:54;;;;;;;15.73;8.52;;;;;;;;;;5029266;28;20141;-62
2023/05/03 01:16:29;;;;;;;13.00;7.32;;;;;;;;;;5029317;28;20120;-62
2023/05/03 01:18:56;;;;;;;13.73;7.30;;;;;;;;;;5028371;28;20398;-62
2023/05/03 01:21:22;;;;;;;12.45;8.50;;;;;;;;;;5029025;28;20455;-62
2023/05/03 01:23:51;;;;;;;19.92;8.18;;;;;;;;;;5010230;28;20026;-62
2023/05/03 01:26:20;;;;;;;11.27;7.57;;;;;;;;;;5028968;28;20029;-59
2023/05/03 01:28:45;;;;;;;13.02;7.68;;;;;;;;;;5028929;28;20497;-61
2023/05/03 01:31:14;;;;;;;16.85;8.82;;;;;;;;;;5028956;28;20029;-61
2023/05/03 01:33:43;;;;;;;16.05;8.30;;;;;;;;;;5029118;28;20038;-61
2023/05/03 01:36:08;;;;;;;;;;;;;;;;;;5029534;28;20094;-62
2023/05/03 01:38:35;;;;;;;13.55;7.75;;;;;;;;;;5028648;28;19913;-61
2023/05/03 01:41:04;;;;;;;13.85;7.63;;;;;;;;;;5028741;28;20054;-63
2023/05/03 01:43:30;;;;;;;9.90;7.97;;;;;;;;;;5028662;28;20041;-63
2023/05/03 01:45:56;;;;;;;13.30;9.38;;;;;;;;;;5028630;28;20395;-61
2023/05/03 01:48:21;;;;;;;13.20;8.50;;;;;;;;;;5028674;28;20478;-62
2023/05/03 01:50:46;;;;;;;15.37;8.30;;;;;;;;;;5028699;28;20114;-61
2023/05/03 01:53:12;;;;;;;14.82;9.88;;;;;;;;;;5028363;28;20258;-62
2023/05/03 01:55:37;;;;;;;10.00;7.90;;;;;;;;;;5028428;28;20099;-62
2023/05/03 01:58:02;;;;;;;11.70;8.68;;;;;;;;;;5028626;28;20430;-60
2023/05/03 02:00:28;;;;;;;12.95;9.00;;;;;;;;;;5028228;28;20560;-62
2023/05/03 02:02:53;;;;;;;13.38;8.05;;;;;;;;;;5028401;28;20024;-62
2023/05/03 02:05:18;;;;;;;10.65;8.52;;;;;;;;;;5028391;28;20426;-62
2023/05/03 02:07:44;;;;;;;14.90;8.70;;;;;;;;;;5028222;28;20099;-62
2023/05/03 02:10:13;;;;;;;15.55;8.35;;;;;;;;;;5028188;28;20037;-62
2023/05/03 02:12:41;;;;;;;12.80;8.77;;;;;;;;;;5028091;28;20032;-61
2023/05/03 02:15:07;;;;;;;15.97;8.20;;;;;;;;;;5028059;28;20372;-63
2023/05/03 02:17:33;;;;;;;13.63;8.68;;;;;;;;;;5028228;28;20163;-62
2023/05/03 02:19:58;;;;;;;11.98;7.63;;;;;;;;;;5010308;28;20028;-62
2023/05/03 02:22:24;;;;;;;14.80;8.55;;;;;;;;;;5027935;28;20495;-62
2023/05/03 02:24:49;;;;;;;20.52;8.20;;;;;;;;;;5010053;28;21161;-59
2023/05/03 02:27:14;;;;;;;10.27;7.40;;;;;;;;;;5027891;28;20028;-61
2023/05/03 02:29:40;;;;;;;13.18;8.13;;;;;;;;;;5027414;28;20113;-62
2023/05/03 02:32:05;;;;;;;12.52;7.82;;;;;;;;;;5028364;28;20025;-61
2023/05/03 02:34:31;;;;;;;8.82;7.05;;;;;;;;;;5027637;28;20045;-63
2023/05/03 02:36:56;;;;;;;9.20;7.47;;;;;;;;;;5027962;28;20348;-62
2023/05/03 02:39:22;;;;;;;11.23;7.75;;;;;;;;;;5027468;28;20038;-62
2023/05/03 02:41:47;;;;;;;13.02;8.32;;;;;;;;;;5027683;28;20695;-59
2023/05/03 02:44:12;;;;;;;13.52;7.30;;;;;;;;;;5027334;28;20459;-62
2023/05/03 02:46:39;;;;;;;12.13;7.82;;;;;;;;;;5027683;28;20026;-63
2023/05/03 02:49:04;;;;;;;16.48;8.50;;;;;;;;;;5027487;28;20030;-60
2023/05/03 02:51:29;;;;;;;8.63;6.82;;;;;;;;;;5027558;28;20116;-62
2023/05/03 02:53:55;;;;;;;11.57;7.78;;;;;;;;;;5027301;28;20158;-62
2023/05/03 02:56:20;;;;;;;14.35;8.25;;;;;;;;;;5027076;28;20021;-60
2023/05/03 02:58:45;;;;;;;10.50;7.45;;;;;;;;;;5027087;28;20025;-60
2023/05/03 03:01:11;;;;;;;10.87;7.77;;;;;;;;;;5027308;28;20017;-62
2023/05/03 03:03:36;;;;;;;10.30;7.03;;;;;;;;;;5027001;28;20254;-61
2023/05/03 03:06:01;;;;;;;13.35;7.75;;;;;;;;;;5026510;28;20032;-62
2023/05/03 03:08:27;;;;;;;11.68;7.55;;;;;;;;;;5026877;28;20052;-62
2023/05/03 03:10:52;;;;;;;15.93;7.28;;;;;;;;;;5008545;28;20426;-62
2023/05/03 03:13:17;;;;;;;10.30;6.68;;;;;;;;;;5027081;28;20459;-62
2023/05/03 03:15:43;;;;;;;12.68;6.50;;;;;;;;;;5026822;28;20223;-61
2023/05/03 03:18:08;;;;;;;9.55;6.80;;;;;;;;;;5027047;28;20160;-62
2023/05/03 03:20:33;;;;;;;16.88;6.80;;;;;;;;;;5026890;28;20017;-62
2023/05/03 03:22:59;;;;;;;14.70;7.45;;;;;;;;;;5027054;28;20034;-62
2023/05/03 03:25:24;;;;;;;11.90;7.38;;;;;;;;;;5026959;28;20033;-60
2023/05/03 03:27:49;;;;;;;11.38;7.47;;;;;;;;;;5026940;28;20033;-62
2023/05/03 03:30:15;;;;;;;11.48;7.28;;;;;;;;;;5026728;28;20028;-62
2023/05/03 03:32:40;;;;;;;15.00;7.85;;;;;;;;;;5027004;28;20021;-62
2023/05/03 03:35:07;;;;;;;11.63;6.97;;;;;;;;;;5026478;28;20751;-61
2023/05/03 03:37:32;;;;;;;11.32;6.45;;;;;;;;;;5026440;28;20024;-62
2023/05/03 03:39:58;;;;;;;10.88;7.38;;;;;;;;;;5026664;28;20010;-62
2023/05/03 03:42:24;;;;;;;15.02;7.40;;;;;;;;;;5026090;28;20099;-62
2023/05/03 03:44:50;;;;;;;11.98;7.72;;;;;;;;;;5026423;28;20076;-61
2023/05/03 03:47:15;;;;;;;10.20;7.32;;;;;;;;;;4991302;28;20405;-63
2023/05/03 03:49:40;;;;;;;13.88;7.55;;;;;;;;;;5026643;28;20026;-61
2023/05/03 03:52:05;;;;;;;11.43;8.05;;;;;;;;;;5026689;28;20084;-62
2023/05/03 03:54:31;;;;;;;13.98;6.80;;;;;;;;;;5026295;28;20037;-62
2023/05/03 03:56:56;;;;;;;19.92;7.72;;;;;;;;;;5026679;28;20029;-61
2023/05/03 03:59:22;;;;;;;14.90;7.15;;;;;;;;;;5026481;28;20410;-62
2023/05/03 04:01:47;;;;;;;12.27;6.97;;;;;;;;;;5026604;28;20100;-60
2023/05/03 04:04:12;;;;;;;12.83;6.93;;;;;;;;;;5026555;28;20440;-60
2023/05/03 04:06:37;;;;;;;12.20;7.40;;;;;;;;;;5026159;28;20258;-59
2023/05/03 04:09:03;;;;;;;9.02;6.13;;;;;;;;;;5025419;28;20032;-62
2023/05/03 04:11:28;;;;;;;11.48;7.40;;;;;;;;;;5025777;28;20040;-60
2023/05/03 04:13:53;;;;;;;14.15;6.93;;;;;;;;;;5025542;28;20025;-63
2023/05/03 04:16:19;;;;;;;11.68;6.82;;;;;;;;;;5025436;28;20561;-63
2023/05/03 04:18:44;;;;;;;12.98;6.63;;;;;;;;;;5006560;28;20036;-62
2023/05/03 04:21:09;;;;;;;18.65;7.03;;;;;;;;;;5025303;28;20022;-62
2023/05/03 04:23:35;;;;;;;12.88;6.30;;;;;;;;;;5025334;28;20052;-62
2023/05/03 04:26:00;;;;;;;11.82;6.70;;;;;;;;;;4990111;28;20046;-61
2023/05/03 04:28:26;;;;;;;11.07;6.60;;;;;;;;;;5027724;28;20083;-61
2023/05/03 04:30:52;;;;;;;9.60;5.93;;;;;;;;;;4983802;28;20169;-60
2023/05/03 04:33:17;;;;;;;7.07;5.80;;;;;;;;;;4951359;28;20443;-63
2023/05/03 04:35:42;;;;;;;8.55;6.15;;;;;;;;;;4983962;28;20089;-61
2023/05/03 04:38:08;;;;;;;8.00;6.28;;;;;;;;;;4984283;28;20022;-62
2023/05/03 04:40:33;;;;;;;10.77;7.03;;;;;;;;;;4984055;28;20093;-62
2023/05/03 04:42:59;;;;;;;8.88;6.38;;;;;;;;;;4983782;28;20129;-62
2023/05/03 04:45:25;;;;;;;11.68;7.00;;;;;;;;;;4983859;28;20058;-61
2023/05/03 04:47:51;;;;;;;12.07;6.43;;;;;;;;;;4984102;28;20030;-61
2023/05/03 04:50:16;;;;;;;11.82;5.93;;;;;;;;;;4983983;28;20049;-60
2023/05/03 04:52:41;;;;;;;11.38;6.20;;;;;;;;;;4983700;28;20077;-62
2023/05/03 04:55:07;;;;;;;7.93;5.43;;;;;;;;;;4986899;28;20633;-61
2023/05/03 04:57:32;;;;;;;9.85;5.72;;;;;;;;;;4987452;28;20042;-61
2023/05/03 04:59:58;;;;;;;8.00;5.43;;;;;;;;;;4988045;28;20101;-63
2023/05/03 05:02:23;;;;;;;7.70;5.13;;;;;;;;;;4988226;28;20042;-62
2023/05/03 05:04:48;;;;;;;11.93;5.50;;;;;;;;;;5030775;28;20414;-62
2023/05/03 05:07:14;;;;;;;8.00;5.32;;;;;;;;;;5030424;28;20358;-61
2023/05/03 05:09:39;;;;;;;9.77;4.85;;;;;;;;;;5030740;28;20030;-62
2023/05/03 05:12:05;;;;;;;11.50;5.50;;;;;;;;;;5030642;28;20029;-61
2023/05/03 05:14:30;;;;;;;10.43;5.43;;;;;;;;;;5030440;28;20029;-62
2023/05/03 05:16:56;;;;;;;11.10;4.80;;;;;;;;;;5030381;28;20399;-61
2023/05/03 05:19:21;;;;;;;7.55;5.28;;;;;;;;;;5030493;28;20033;-62
2023/05/03 05:21:47;;;;;;;442.55;397.88;;;;;;;;;;5030216;28;20020;-62
2023/05/03 05:24:12;;;;;;;461.33;423.20;;;;;;;;;;5031920;28;20064;-62
2023/05/03 05:26:37;;;;;;;478.23;435.45;;;;;;;;;;5030247;28;20086;-60
2023/05/03 05:29:02;;;;;;;578.92;445.20;;;;;;;;;;5029721;28;20025;-61
2023/05/03 05:31:28;;;;;;;21.30;13.05;;;;;;;;;;5030430;28;20029;-62
2023/05/03 05:33:53;;;;;;;15.85;8.30;;;;;;;;;;5029922;28;20017;-63
2023/05/03 05:36:19;;;;;;;9.40;5.15;;;;;;;;;;5030296;28;20588;-62
2023/05/03 05:38:44;;;;;;;10.27;5.30;;;;;;;;;;5029867;28;20724;-60
2023/05/03 05:41:10;;;;;;;20.67;12.73;;;;;;;;;;5031181;28;20017;-61
2023/05/03 05:43:35;;;;;;;13.75;5.78;;;;;;;;;;5038999;28;20768;-63
2023/05/03 05:46:00;;;;;;;14.15;6.35;;;;;;;;;;5048494;28;20666;-59
2023/05/03 05:48:25;;;;;;;14.40;5.78;;;;;;;;;;5048625;28;20445;-61
2023/05/03 05:50:51;;;;;;;9.07;5.80;;;;;;;;;;5048128;28;20013;-61
2023/05/03 05:53:16;;;;;;;17.20;5.95;;;;;;;;;;5048217;28;20025;-62
2023/05/03 05:55:41;;;;;;;20.55;11.95;;;;;;;;;;5047534;28;20028;-62
2023/05/03 05:58:07;;;;;;;18.02;5.82;;;;;;;;;;5047755;28;20021;-62
2023/05/03 06:00:32;;;;;;;9.50;5.40;;;;;;;;;;5047297;28;20103;-62
2023/05/03 06:02:57;;;;;;;11.82;5.75;;;;;;;;;;5037687;28;20025;-62
2023/05/03 06:05:22;;;;;;;7.13;5.03;;;;;;;;;;5045336;28;20713;-61
2023/05/03 06:07:48;;;;;;;12.45;5.38;;;;;;;;;;5043332;28;20245;-63
2023/05/03 06:10:14;;;;;;;9.73;4.93;;;;;;;;;;5037626;28;20017;-61
2023/05/03 06:12:39;;;;;;;12.60;5.25;;;;;;;;;;5036225;28;20030;-61
2023/05/03 06:15:06;;;;;;;45.88;25.90;;;;;;;;;;5034929;28;20082;-61
2023/05/03 06:17:31;;;;;;;6.68;4.65;;;;;;;;;;5039025;28;20601;-63
2023/05/03 06:19:56;;;;;;;9.85;4.20;;;;;;;;;;5034292;28;20083;-61
2023/05/03 06:22:22;;;;;;;8.88;4.72;;;;;;;;;;5042537;28;20025;-61
2023/05/03 06:24:47;;;;;;;11.27;4.93;;;;;;;;;;5038524;28;20389;-59
2023/05/03 06:27:12;;;;;;;6.85;4.72;;;;;;;;;;5036309;28;20029;-61
2023/05/03 06:29:38;;;;;;;11.50;4.80;;;;;;;;;;5043756;28;20494;-61
2023/05/03 06:32:03;;;;;;;6.68;4.63;;;;;;;;;;5038047;28;20253;-62
2023/05/03 06:34:28;;;;;;;9.00;4.82;;;;;;;;;;5015916;28;20668;-62
2023/05/03 06:36:54;;;;;;;6.50;4.28;;;;;;;;;;5027097;28;20052;-63
2023/05/03 06:39:19;;;;;;;6.15;4.45;;;;;;;;;;5037648;28;20022;-62
2023/05/03 06:41:45;;;;;;;9.35;4.03;;;;;;;;;;5015832;28;20016;-61
2023/05/03 06:44:10;;;;;;;7.30;3.88;;;;;;;;;;4993254;28;20177;-63
2023/05/03 06:46:35;;;;;;;7.15;4.00;;;;;;;;;;4989644;28;20065;-62
2023/05/03 06:49:00;;;;;;;9.00;4.00;;;;;;;;;;4991778;28;20041;-60
2023/05/03 06:51:28;;;;;;;11.73;3.92;;;;;;;;;;5013706;28;20105;-62
2023/05/03 06:53:55;;;;;;;13.45;5.22;;;;;;;;;;5002939;28;20088;-62
2023/05/03 06:56:20;;;;;;;10.40;4.63;;;;;;;;;;4997644;28;20093;-63
2023/05/03 06:58:46;;;;;;;11.82;4.60;;;;;;;;;;4996783;28;20549;-63
2023/05/03 07:01:11;;;;;;;9.88;3.83;;;;;;;;;;4991710;28;20049;-63
2023/05/03 07:03:36;;;;;;;7.85;3.85;;;;;;;;;;4988660;28;20034;-63
2023/05/03 07:06:02;;;;;;;7.95;3.60;;;;;;;;;;4999662;28;20032;-63
2023/05/03 07:08:28;;;;;;;10.00;4.88;;;;;;;;;;5023737;28;20379;-63
2023/05/03 07:10:53;;;;;;;7.18;3.88;;;;;;;;;;5010874;28;20077;-62
2023/05/03 07:13:18;;;;;;;8.77;4.22;;;;;;;;;;5002060;28;20044;-62
2023/05/03 07:15:44;;;;;;;6.50;3.23;;;;;;;;;;5033850;28;20055;-62
2023/05/03 07:18:10;;;;;;;11.15;3.90;;;;;;;;;;5045966;28;20330;-64
2023/05/03 07:20:35;;;;;;;6.47;3.55;;;;;;;;;;5040858;28;20534;-62
2023/05/03 07:23:00;;;;;;;6.75;3.45;;;;;;;;;;5025998;28;20029;-58
2023/05/03 07:25:26;;;;;;;11.90;3.67;;;;;;;;;;5036456;28;20089;-56
2023/05/03 07:27:51;;;;;;;7.07;3.85;;;;;;;;;;5042904;28;20474;-57
2023/05/03 07:30:17;;;;;;;6.05;3.65;;;;;;;;;;5045198;28;20493;-57
2023/05/03 07:32:42;;;;;;;10.63;4.25;;;;;;;;;;4977598;28;20041;-58
2023/05/03 07:35:08;;;;;;;9.25;3.55;;;;;;;;;;5031266;28;20036;-58
2023/05/03 07:37:33;;;;;;;10.10;4.00;;;;;;;;;;5031215;28;20104;-56
2023/05/03 07:39:58;;;;;;;12.73;3.92;;;;;;;;;;5030348;28;20035;-59
2023/05/03 07:42:24;;;;;;;11.23;4.30;;;;;;;;;;5030465;28;20033;-58
2023/05/03 07:44:49;;;;;;;11.00;3.80;;;;;;;;;;5020871;28;20503;-58
2023/05/03 07:47:16;;;;;;;8.30;3.70;;;;;;;;;;5034340;28;20049;-60
2023/05/03 07:49:41;;;;;;;8.07;3.93;;;;;;;;;;5029730;28;20048;-60
2023/05/03 07:52:06;;;;;;;10.63;4.47;;;;;;;;;;5030449;28;20796;-61
2023/05/03 07:54:31;;;;;;;10.45;3.42;;;;;;;;;;5036443;28;20277;-62
2023/05/03 07:56:57;;;;;;;8.73;3.97;;;;;;;;;;5036466;28;20031;-61
2023/05/03 07:59:22;;;;;;;12.18;3.90;;;;;;;;;;5045325;28;20694;-60
2023/05/03 08:01:47;;;;;;;9.45;3.50;;;;;;;;;;5036321;28;20546;-60
2023/05/03 08:04:13;;;;;;;9.70;3.67;;;;;;;;;;5037665;28;20026;-62
2023/05/03 08:06:38;;;;;;;14.02;3.63;;;;;;;;;;5033799;28;20025;-62
2023/05/03 08:09:03;;;;;;;11.70;3.50;;;;;;;;;;5040990;28;20036;-60
2023/05/03 08:11:29;;;;;;;5.78;3.55;;;;;;;;;;5056479;28;20334;-61
2023/05/03 08:13:55;;;;;;;11.80;3.90;;;;;;;;;;5029272;28;20041;-61
2023/05/03 08:16:20;;;;;;;11.48;3.28;;;;;;;;;;5030809;28;20033;-60
2023/05/03 08:18:46;;;;;;;13.10;3.60;;;;;;;;;;5042421;28;20039;-61
2023/05/03 08:21:12;;;;;;;7.55;3.28;;;;;;;;;;5033010;28;20744;-60
2023/05/03 08:23:38;;;;;;;13.10;3.15;;;;;;;;;;5031073;28;20104;-59
2023/05/03 08:26:04;;;;;;;7.50;3.38;;;;;;;;;;5032381;28;20150;-58
2023/05/03 08:28:30;;;;;;;7.63;3.35;;;;;;;;;;5031115;28;20497;-58
2023/05/03 08:30:55;;;;;;;11.43;3.30;;;;;;;;;;5038333;28;20021;-61
2023/05/03 08:33:21;;;;;;;8.02;3.38;;;;;;;;;;5031318;28;20024;-59
2023/05/03 08:35:46;;;;;;;4.97;2.93;;;;;;;;;;5045483;28;20029;-60
2023/05/03 08:38:12;;;;;;;4.97;3.10;;;;;;;;;;5039681;28;20729;-59
2023/05/03 08:40:39;;;;;;;9.85;3.15;;;;;;;;;;5031532;28;20294;-59
2023/05/03 08:43:08;;;;;;;7.65;2.90;;;;;;;;;;5036920;28;20072;-59
2023/05/03 08:45:34;;;;;;;7.50;3.17;;;;;;;;;;5027051;28;20404;-59
2023/05/03 08:48:01;;;;;;;6.47;2.95;;;;;;;;;;5027862;28;20029;-60
2023/05/03 08:50:27;;;;;;;12.02;3.08;;;;;;;;;;5016204;28;20493;-59
2023/05/03 08:52:52;;;;;;;6.38;2.80;;;;;;;;;;5029179;28;20017;-59
2023/05/03 08:55:18;;;;;;;4.43;2.97;;;;;;;;;;5045992;28;20705;-59
2023/05/03 08:57:43;;;;;;;8.30;3.15;;;;;;;;;;5046791;28;20497;-61
2023/05/03 09:00:13;;;;;;;4.40;2.90;;;;;;;;;;5035938;28;20029;-61
2023/05/03 09:02:39;;;;;;;8.93;2.85;;;;;;;;;;5040745;28;20289;-59
2023/05/03 09:05:05;;;;;;;6.47;2.80;;;;;;;;;;5032759;28;20021;-59
2023/05/03 09:07:31;;;;;;;4.82;2.72;;;;;;;;;;5013314;28;20084;-58
2023/05/03 09:09:57;;;;;;;9.18;2.92;;;;;;;;;;4991796;28;20040;-59
2023/05/03 09:12:35;;;;;;;4.20;2.50;;;;;;;;;;5036078;28;20021;-58
2023/05/03 09:15:02;;;;;;;10.95;3.70;;;;;;;;;;5027638;28;20574;-59
2023/05/03 09:17:27;;;;;;;7.45;2.33;;;;;;;;;;5024328;28;20386;-61
2023/05/03 09:19:55;;;;;;;3.20;2.50;;;;;;;;;;5024067;28;20010;-59
2023/05/03 09:22:25;;;;;;;16.55;3.30;;;;;;;;;;5023640;28;20253;-62
2023/05/03 09:24:51;;;;;;;3.55;2.38;;;;;;;;;;5023934;28;20036;-60
2023/05/03 09:27:18;;;;;;;5.95;2.50;;;;;;;;;;5020781;28;20500;-59
2023/05/03 09:29:44;;;;;;;6.25;2.45;;;;;;;;;;5023148;28;20025;-61
2023/05/03 09:32:10;;;;;;;6.13;2.50;;;;;;;;;;5043609;28;20020;-59
2023/05/03 09:34:36;;;;;;;6.72;2.22;;;;;;;;;;5043211;28;20450;-64
2023/05/03 09:37:01;;;;;;;3.60;2.35;;;;;;;;;;5043875;28;20029;-63
2023/05/03 09:39:26;;;;;;;6.15;2.83;;;;;;;;;;5043616;28;20040;-61
2023/05/03 09:41:52;;;;;;;6.40;2.60;;;;;;;;;;5038186;28;20330;-62
2023/05/03 09:44:17;;;;;;;6.13;2.30;;;;;;;;;;5029892;28;20385;-66
2023/05/03 09:47:04;;;;;;;3.72;2.25;;;;;;;;;;5029403;28;20306;-65
2023/05/03 09:49:32;;;;;;;2.97;2.08;;;;;;;;;;5039652;28;20025;-66
2023/05/03 09:52:00;;;;;;;5.63;2.30;;;;;;;;;;5047245;28;20025;-65
2023/05/03 09:54:26;;;;;;;4.40;2.10;;;;;;;;;;5048085;28;20028;-66
2023/05/03 09:56:51;;;;;;;6.93;1.90;;;;;;;;;;5048732;28;20524;-66
2023/05/03 09:59:17;;;;;;;5.88;2.25;;;;;;;;;;5053390;28;20029;-66
2023/05/03 10:01:43;;;;;;;7.67;2.37;;;;;;;;;;5017989;28;20044;-64
2023/05/03 10:04:08;;;;;;;4.90;1.90;;;;;;;;;;5049405;28;20032;-67
2023/05/03 10:06:43;;;;;;;11.30;2.35;;;;;;;;;;5050025;28;20037;-65
2023/05/03 10:09:15;;;;;;;6.90;2.05;;;;;;;;;;5049429;28;20017;-65
2023/05/03 10:11:45;;;;;;;4.95;2.72;;;;;;;;;;5043891;28;20040;-66
2023/05/03 10:14:11;;;;;;;4.38;2.28;;;;;;;;;;5047253;28;20036;-66
2023/05/03 10:16:37;;;;;;;4.03;2.63;;;;;;;;;;5047573;28;20482;-66
2023/05/03 10:19:14;;;;;;;4.82;2.47;;;;;;;;;;5047259;28;20024;-63
2023/05/03 10:21:48;;;;;;;2.42;1.70;;;;;;;;;;5030310;28;20047;-65
2023/05/03 10:24:14;;;;;;;3.95;2.30;;;;;;;;;;5040766;28;20028;-66
2023/05/03 10:26:46;;;;;;;3.38;2.03;;;;;;;;;;5032093;28;20029;-66
2023/05/03 10:29:30;;;;;;;5.43;2.00;;;;;;;;;;5036795;28;20156;-65
2023/05/03 10:31:56;;;;;;;4.57;2.38;;;;;;;;;;5033118;28;20474;-67
2023/05/03 10:34:22;;;;;;;6.65;2.40;;;;;;;;;;5031198;28;20053;-68
2023/05/03 10:36:52;;;;;;;6.75;1.95;;;;;;;;;;5041905;28;20029;-66
2023/05/03 10:39:18;;;;;;;4.35;2.50;;;;;;;;;;5040656;28;20025;-65
2023/05/03 10:41:44;;;;;;;23.90;2.90;;;;;;;;;;5042945;28;20020;-63
2023/05/03 10:44:25;;;;;;;4.88;2.40;;;;;;;;;;5028853;28;21322;-67
2023/05/03 10:46:52;;;;;;;5.40;2.40;;;;;;;;;;5020380;28;20170;-64
2023/05/03 10:49:18;;;;;;;9.48;2.45;;;;;;;;;;5027547;28;20021;-62
2023/05/03 10:51:44;;;;;;;3.97;2.30;;;;;;;;;;5031040;28;20025;-60
2023/05/03 10:54:09;;;;;;;6.38;2.17;;;;;;;;;;5027116;28;20107;-61
2023/05/03 10:56:46;;;;;;;5.03;2.17;;;;;;;;;;5027617;28;20496;-61
2023/05/03 10:59:11;;;;;;;5.38;2.33;;;;;;;;;;5029380;28;20032;-60
2023/05/03 11:01:36;;;;;;;2.70;2.10;;;;;;;;;;5035129;28;20021;-61
2023/05/03 11:04:21;;;;;;;5.75;2.95;;;;;;;;;;5015273;28;20618;-61
2023/05/03 11:06:50;;;;;;;8.45;2.58;;;;;;;;;;5034868;28;20074;-61
2023/05/03 11:09:16;;;;;;;3.55;2.35;;;;;;;;;;5025137;28;20033;-60
2023/05/03 11:11:42;;;;;;;7.63;2.90;;;;;;;;;;5029309;28;20036;-60
2023/05/03 11:14:08;;;;;;;3.30;2.35;;;;;;;;;;5031814;28;20020;-60
2023/05/03 11:16:35;;;;;;;5.78;2.45;;;;;;;;;;4995590;28;20053;-62
2023/05/03 11:19:01;;;;;;;11.27;2.53;;;;;;;;;;5032253;28;20029;-58
2023/05/03 11:21:26;;;;;;;5.38;2.28;;;;;;;;;;5016617;28;20079;-59
2023/05/03 11:23:51;;;;;;;3.88;2.03;;;;;;;;;;5012693;28;20082;-60
2023/05/03 11:26:18;;;;;;;4.20;2.23;;;;;;;;;;5018159;28;20040;-59
2023/05/03 11:28:43;;;;;;;5.75;2.35;;;;;;;;;;5022642;28;20255;-61
2023/05/03 11:31:09;;;;;;;4.30;2.55;;;;;;;;;;5010145;28;20025;-61
2023/05/03 11:33:38;;;;;;;7.07;2.35;;;;;;;;;;5010137;28;20057;-60
2023/05/03 11:36:05;;;;;;;9.20;2.30;;;;;;;;;;5006788;28;20258;-60
2023/05/03 11:38:31;;;;;;;4.40;2.40;;;;;;;;;;5005755;28;20034;-59
2023/05/03 11:40:57;;;;;;;7.57;2.45;;;;;;;;;;5016498;28;20036;-57
2023/05/03 11:43:22;;;;;;;6.65;2.33;;;;;;;;;;4982672;28;20037;-56
2023/05/03 11:45:50;;;;;;;4.60;2.00;;;;;;;;;;5008868;28;20046;-57
2023/05/03 11:48:15;;;;;;;6.28;2.30;;;;;;;;;;5006196;28;20034;-56
2023/05/03 11:50:50;;;;;;;6.23;2.40;;;;;;;;;;5017975;28;20472;-58
2023/05/03 11:53:16;;;;;;;3.67;2.03;;;;;;;;;;5007704;28;20279;-58
2023/05/03 11:55:42;;;;;;;4.43;2.03;;;;;;;;;;5007797;28;20025;-58
2023/05/03 11:58:11;;;;;;;5.63;2.30;;;;;;;;;;5008371;28;20116;-56
2023/05/03 12:00:37;;;;;;;2.33;1.88;;;;;;;;;;5035209;28;20035;-55
2023/05/03 12:03:02;;;;;;;5.15;2.00;;;;;;;;;;5014631;28;20021;-57
2023/05/03 12:05:29;;;;;;;2.58;2.13;;;;;;;;;;5030328;28;20601;-55
2023/05/03 12:07:54;;;;;;;5.25;2.10;;;;;;;;;;5039380;28;20537;-53
2023/05/03 12:10:20;;;;;;;6.22;2.45;;;;;;;;;;5029231;28;20029;-58
2023/05/03 12:12:58;;;;;;;4.85;1.80;;;;;;;;;;5022238;28;20392;-56
2023/05/03 12:15:30;;;;;;;5.00;1.90;;;;;;;;;;5033282;28;20037;-63
2023/05/03 12:17:56;;;;;;;4.50;2.10;;;;;;;;;;5037384;28;20033;-58
2023/05/03 12:20:22;;;;;;;10.38;2.97;;;;;;;;;;5068099;28;20119;-57
2023/05/03 12:22:51;;;;;;;6.80;2.35;;;;;;;;;;5043688;28;20105;-62
2023/05/03 12:25:18;;;;;;;4.80;2.00;;;;;;;;;;5035852;28;20032;-62
2023/05/03 12:27:43;;;;;;;4.43;2.17;;;;;;;;;;5054927;28;20025;-61
2023/05/03 12:30:09;;;;;;;6.15;2.08;;;;;;;;;;5038997;28;20548;-61
2023/05/03 12:32:35;;;;;;;5.13;2.00;;;;;;;;;;5040245;28;20056;-63
2023/05/03 12:35:00;;;;;;;27.30;3.45;;;;;;;;;;5034558;28;20057;-63
2023/05/03 12:37:26;;;;;;;9.87;2.40;;;;;;;;;;5034815;28;20032;-60
2023/05/03 12:39:51;;;;;;;9.98;2.35;;;;;;;;;;5031629;28;21977;-60
2023/05/03 12:42:16;;;;;;;2.50;2.07;;;;;;;;;;4996491;28;20029;-59
2023/05/03 12:44:43;;;;;;;8.40;2.60;;;;;;;;;;5034115;28;20577;-62
2023/05/03 12:47:08;;;;;;;3.42;1.98;;;;;;;;;;5037471;28;20353;-60
2023/05/03 12:49:33;;;;;;;4.20;2.40;;;;;;;;;;5048830;28;20121;-59
2023/05/03 12:52:01;;;;;;;7.57;2.67;;;;;;;;;;5033251;28;20258;-59
2023/05/03 12:54:26;;;;;;;11.75;2.17;;;;;;;;;;5045248;28;20266;-60
2023/05/03 12:56:52;;;;;;;3.47;2.17;;;;;;;;;;5040216;28;20218;-61
2023/05/03 12:59:17;;;;;;;9.52;2.67;;;;;;;;;;5032742;28;20027;-58
2023/05/03 13:01:43;;;;;;;6.43;2.00;;;;;;;;;;5028949;28;20044;-63
2023/05/03 13:04:08;;;;;;;8.57;2.00;;;;;;;;;;5039548;28;20025;-62
2023/05/03 13:06:35;;;;;;;5.67;2.13;;;;;;;;;;5041806;28;20116;-64
2023/05/03 13:09:01;;;;;;;14.13;2.58;;;;;;;;;;4992578;28;20716;-61
2023/05/03 13:11:26;;;;;;;3.40;2.40;;;;;;;;;;4955278;28;20788;-57
2023/05/03 13:13:51;;;;;;;7.47;2.50;;;;;;;;;;4984217;28;20030;-61
2023/05/03 13:16:18;;;;;;;10.10;2.95;;;;;;;;;;4990053;28;20096;-60
2023/05/03 13:18:44;;;;;;;8.05;2.22;;;;;;;;;;5001147;28;20406;-61
2023/05/03 13:21:10;;;;;;;4.57;2.58;;;;;;;;;;4993742;28;20030;-62
2023/05/03 13:23:36;;;;;;;4.45;2.25;;;;;;;;;;4997203;28;20039;-57
2023/05/03 13:26:01;;;;;;;5.60;2.17;;;;;;;;;;4986641;28;20400;-57
2023/05/03 13:28:27;;;;;;;15.57;3.53;;;;;;;;;;5000945;28;20070;-59
2023/05/03 13:30:52;;;;;;;10.32;2.75;;;;;;;;;;4990550;28;20417;-60
2023/05/03 13:33:17;;;;;;;7.72;2.95;;;;;;;;;;4995784;28;20414;-60
2023/05/03 13:35:43;;;;;;;7.68;2.78;;;;;;;;;;4996932;28;20037;-60
2023/05/03 13:38:08;;;;;;;4.07;2.10;;;;;;;;;;4986867;28;20071;-63
2023/05/03 13:40:33;;;;;;;9.07;7.40;;;;;;;;;;5022782;28;20270;-64
2023/05/03 13:42:59;;;;;;;119.90;112.00;;;;;;;;;;5028580;28;20427;-63
2023/05/03 13:45:24;;;;;;;223.43;208.80;;;;;;;;;;5030485;28;20294;-63
2023/05/03 13:47:49;;;;;;;321.60;299.65;;;;;;;;;;5032352;28;20680;-65
2023/05/03 13:50:15;;;;;;;544.87;502.27;;;;;;;;;;5027687;28;20013;-62
2023/05/03 13:52:41;;;;;;;266.45;210.48;;;;;;;;;;5033215;28;20709;-64
2023/05/03 13:55:07;;;;;;;460.80;424.30;;;;;;;;;;5039940;28;20017;-58
2023/05/03 13:57:32;;;;;;;1029.13;922.80;;;;;;;;;;5027556;28;20390;-59
2023/05/03 13:59:57;;;;;;;1053.88;949.10;;;;;;;;;;5046895;28;20551;-58
2023/05/03 14:02:23;;;;;;;1035.75;924.45;;;;;;;;;;5038541;28;20457;-59
2023/05/03 14:04:48;;;;;;;1034.77;925.43;;;;;;;;;;5025170;28;20025;-61
2023/05/03 14:07:14;;;;;;;1036.40;925.83;;;;;;;;;;5037704;28;20320;-58
2023/05/03 14:09:39;;;;;;;1001.90;888.67;;;;;;;;;;5037063;28;20028;-60
2023/05/03 14:12:05;;;;;;;216.90;198.65;;;;;;;;;;5032482;28;20032;-63
2023/05/03 14:14:31;;;;;;;818.15;754.53;;;;;;;;;;5038063;28;20143;-61
2023/05/03 14:16:56;;;;;;;931.20;854.03;;;;;;;;;;5047266;28;20048;-61
2023/05/03 14:19:21;;;;;;;965.63;880.08;;;;;;;;;;5047017;28;20389;-60
2023/05/03 14:21:48;;;;;;;958.38;872.67;;;;;;;;;;5047050;28;20035;-59
2023/05/03 14:24:14;;;;;;;247.68;178.13;;;;;;;;;;5045708;28;20074;-61
2023/05/03 14:26:40;;;;;;;389.10;362.35;;;;;;;;;;5035850;28;20722;-60